Time;durP1;ratioP1;P1;durP2;ratioP2;P2;SDS_P1;SDS_P2;PMS_P1;PMS_P2;Temp;Humidity;BMP_temperature;BMP_pressure;BME280_temperature;BME280_humidity;BME280_pressure;Samples;Min_cycle;Max_cycle;Signal;HPM_P1;HPM_P2
2023/12/12 00:04:19;;;;;;;10.80;10.50;;;8.90;99.90;;;;;;5026594;28;20224;-87
2023/12/12 00:06:47;;;;;;;10.73;10.43;;;8.90;99.90;;;;;;5026304;28;20236;-87
2023/12/12 00:09:26;;;;;;;10.80;10.50;;;8.90;99.90;;;;;;5027206;28;20232;-85
2023/12/12 00:11:57;;;;;;;10.67;10.37;;;8.90;99.90;;;;;;5029940;28;20223;-85
2023/12/12 00:14:25;;;;;;;10.60;10.30;;;8.90;99.90;;;;;;5029472;28;20232;-85
2023/12/12 00:16:54;;;;;;;10.63;10.33;;;8.90;99.90;;;;;;5032809;28;20238;-83
2023/12/12 00:19:33;;;;;;;10.77;10.47;;;8.90;99.90;;;;;;5031875;28;20287;-86
2023/12/12 00:22:01;;;;;;;10.70;10.40;;;8.90;99.90;;;;;;5027597;28;20231;-86
2023/12/12 00:24:41;;;;;;;10.73;10.43;;;8.90;99.90;;;;;;5027813;28;20236;-86
2023/12/12 00:27:12;;;;;;;11.00;10.70;;;8.90;99.90;;;;;;5026524;28;20260;-84
2023/12/12 00:29:42;;;;;;;10.63;10.33;;;8.90;99.90;;;;;;5028869;28;20220;-85
2023/12/12 00:32:09;;;;;;;10.70;10.40;;;8.80;99.90;;;;;;5028813;28;20259;-85
2023/12/12 00:34:41;;;;;;;10.90;10.60;;;8.80;99.90;;;;;;5026759;28;20243;-85
2023/12/12 00:37:08;;;;;;;10.80;10.50;;;8.80;99.90;;;;;;5026815;28;20225;-84
2023/12/12 00:39:38;;;;;;;10.67;10.37;;;8.80;99.90;;;;;;5023460;28;20236;-86
2023/12/12 00:42:06;;;;;;;10.93;10.63;;;8.90;99.90;;;;;;5024360;28;20248;-86
2023/12/12 00:44:53;;;;;;;10.53;10.23;;;8.80;99.90;;;;;;5034332;28;20247;-83
2023/12/12 00:47:22;;;;;;;10.73;10.43;;;8.80;99.90;;;;;;5038354;28;20235;-86
2023/12/12 00:50:01;;;;;;;10.70;10.40;;;8.90;99.90;;;;;;5028841;28;20228;-85
2023/12/12 00:52:30;;;;;;;11.00;10.70;;;8.90;99.90;;;;;;5028586;28;20236;-85
2023/12/12 00:54:59;;;;;;;10.70;10.40;;;8.90;99.90;;;;;;5027698;28;20240;-86
2023/12/12 00:57:30;;;;;;;10.90;10.60;;;8.90;99.90;;;;;;5026807;28;20244;-85
2023/12/12 01:00:36;;;;;;;10.90;10.60;;;8.90;99.90;;;;;;5027030;28;20292;-85
2023/12/12 01:03:04;;;;;;;11.00;10.70;;;8.90;99.90;;;;;;5026203;28;20239;-86
2023/12/12 01:05:32;;;;;;;10.80;10.50;;;8.80;99.90;;;;;;5026799;28;20296;-87
2023/12/12 01:08:12;;;;;;;10.40;10.10;;;8.80;99.90;;;;;;5025992;28;20282;-86
2023/12/12 01:10:40;;;;;;;10.80;10.50;;;8.80;99.90;;;;;;5025760;28;20276;-86
2023/12/12 01:13:19;;;;;;;10.90;10.60;;;8.80;99.90;;;;;;5028469;28;20251;-86
2023/12/12 01:18:52;;;;;;;10.87;10.57;;;8.80;99.90;;;;;;5025920;28;20224;-85
2023/12/12 01:21:31;;;;;;;10.90;10.60;;;8.80;99.90;;;;;;5026181;28;20232;-86
2023/12/12 01:24:01;;;;;;;10.80;10.50;;;8.80;99.90;;;;;;5025251;28;20248;-86
2023/12/12 01:26:29;;;;;;;10.63;10.33;;;8.80;99.90;;;;;;5025793;28;20242;-86
2023/12/12 01:29:09;;;;;;;10.77;10.47;;;8.80;99.90;;;;;;5025375;28;20267;-85
2023/12/12 01:34:42;;;;;;;10.70;10.40;;;8.70;99.90;;;;;;5024684;28;20228;-86
2023/12/12 01:37:21;;;;;;;10.90;10.60;;;8.70;99.90;;;;;;5025200;28;20247;-86
2023/12/12 01:39:49;;;;;;;11.03;10.73;;;8.70;99.90;;;;;;5025250;28;20227;-86
2023/12/12 01:42:29;;;;;;;11.20;10.80;;;8.70;99.90;;;;;;5025914;28;20248;-85
2023/12/12 01:44:57;;;;;;;11.10;10.80;;;8.60;99.90;;;;;;5026125;28;20262;-86
2023/12/12 01:50:13;;;;;;;11.00;10.70;;;8.50;99.90;;;;;;5024959;28;20216;-86
2023/12/12 01:52:52;;;;;;;11.30;10.90;;;8.50;99.90;;;;;;5026987;28;20251;-85
2023/12/12 01:55:22;;;;;;;10.73;10.43;;;8.50;99.90;;;;;;5030329;28;20235;-87
2023/12/12 01:57:51;;;;;;;10.87;10.57;;;8.40;99.90;;;;;;5029576;28;20236;-87
2023/12/12 02:00:20;;;;;;;10.97;10.67;;;8.40;99.90;;;;;;5027276;28;20232;-85
2023/12/12 02:03:00;;;;;;;11.20;10.80;;;8.40;99.90;;;;;;5032911;28;20196;-84
2023/12/12 02:05:30;;;;;;;11.10;10.70;;;8.40;99.90;;;;;;5039359;28;20289;-86
2023/12/12 02:07:58;;;;;;;11.33;10.93;;;8.40;99.90;;;;;;5032624;28;20322;-86
2023/12/12 02:10:39;;;;;;;10.63;10.33;;;8.30;99.90;;;;;;5034879;28;20228;-86
2023/12/12 02:13:06;;;;;;;10.80;10.50;;;8.30;99.90;;;;;;5027941;28;20229;-86
2023/12/12 02:15:45;;;;;;;10.97;10.67;;;8.20;99.90;;;;;;5028983;28;20247;-86
2023/12/12 02:21:01;;;;;;;11.03;10.70;;;8.10;99.90;;;;;;5028117;28;20749;-87
2023/12/12 02:26:17;;;;;;;11.40;11.00;;;8.10;99.90;;;;;;5029967;28;20230;-85
2023/12/12 02:28:57;;;;;;;11.50;11.10;;;8.10;99.90;;;;;;5029085;28;20319;-86
2023/12/12 02:31:26;;;;;;;11.23;10.83;;;8.10;99.90;;;;;;5029205;28;20231;-87
2023/12/12 02:33:55;;;;;;;11.30;10.90;;;8.00;99.90;;;;;;5027823;28;20303;-85
2023/12/12 02:36:34;;;;;;;11.47;11.07;;;8.00;99.90;;;;;;5027433;28;20244;-86
2023/12/12 02:41:50;;;;;;;11.40;11.00;;;8.00;99.90;;;;;;5027876;28;20239;-85
2023/12/12 02:44:19;;;;;;;11.57;11.17;;;8.00;99.90;;;;;;5027746;28;20232;-85
2023/12/12 02:46:51;;;;;;;11.43;11.03;;;8.00;99.90;;;;;;5026984;28;20271;-86
2023/12/12 02:49:18;;;;;;;11.60;11.20;;;8.00;99.90;;;;;;5029281;28;20228;-86
2023/12/12 02:51:48;;;;;;;11.60;11.20;;;8.00;99.90;;;;;;5029653;28;20236;-87
2023/12/12 02:57:04;;;;;;;11.80;11.40;;;8.00;99.90;;;;;;5029131;28;20235;-86
2023/12/12 02:59:43;;;;;;;11.50;11.10;;;8.00;99.90;;;;;;5030341;28;20330;-86
2023/12/12 03:02:15;;;;;;;11.47;11.07;;;8.00;99.90;;;;;;5029928;28;20220;-86
2023/12/12 03:04:44;;;;;;;11.33;10.93;;;8.00;99.90;;;;;;5031913;28;20239;-85
2023/12/12 03:07:11;;;;;;;11.50;11.10;;;8.00;99.90;;;;;;5034975;28;20287;-85
2023/12/12 03:09:42;;;;;;;11.50;11.10;;;7.90;99.90;;;;;;5034422;28;20225;-86
2023/12/12 03:12:10;;;;;;;11.60;11.20;;;8.00;99.90;;;;;;5034045;28;20236;-85
2023/12/12 03:14:39;;;;;;;11.73;11.33;;;8.00;99.90;;;;;;5033815;28;20204;-85
2023/12/12 03:17:17;;;;;;;11.57;11.17;;;7.90;99.90;;;;;;5032872;28;20228;-85
2023/12/12 03:22:25;;;;;;;11.67;11.27;;;7.90;99.90;;;;;;5032888;28;20228;-85
2023/12/12 03:27:51;;;;;;;11.70;11.30;;;7.90;99.90;;;;;;5027994;28;20223;-85
2023/12/12 03:30:21;;;;;;;11.90;11.50;;;7.80;99.90;;;;;;5030209;28;20230;-85
2023/12/12 03:32:49;;;;;;;12.00;11.60;;;7.80;99.90;;;;;;5029680;28;20235;-85
2023/12/12 03:35:18;;;;;;;12.00;11.60;;;7.70;99.90;;;;;;5028825;28;20224;-86
2023/12/12 03:37:57;;;;;;;11.87;11.47;;;7.70;99.90;;;;;;5029061;28;20251;-85
2023/12/12 03:43:23;;;;;;;12.10;11.70;;;7.60;99.90;;;;;;5028469;28;20228;-85
2023/12/12 03:45:51;;;;;;;12.00;11.60;;;7.60;99.90;;;;;;5029542;28;20224;-85
2023/12/12 03:48:30;;;;;;;11.90;11.50;;;7.60;99.90;;;;;;5029218;28;20264;-85
2023/12/12 03:50:58;;;;;;;11.87;11.47;;;7.50;99.90;;;;;;5040277;28;20263;-85
2023/12/12 03:53:37;;;;;;;12.27;11.87;;;7.50;99.90;;;;;;5037795;28;20236;-86
2023/12/12 03:59:04;;;;;;;11.90;11.50;;;7.30;99.90;;;;;;5030924;28;20709;-85
2023/12/12 04:01:33;;;;;;;11.93;11.53;;;7.30;99.90;;;;;;5032178;28;20314;-86
2023/12/12 04:04:12;;;;;;;11.90;11.50;;;7.20;99.90;;;;;;5038786;28;20232;-84
2023/12/12 04:09:30;;;;;;;12.17;11.77;;;7.20;99.90;;;;;;5025498;28;20216;-84
2023/12/12 04:12:00;;;;;;;11.90;11.50;;;7.30;99.90;;;;;;5033577;28;20267;-85
2023/12/12 04:14:27;;;;;;;11.73;11.33;;;7.30;99.90;;;;;;5031346;28;20304;-85
2023/12/12 04:16:56;;;;;;;11.87;11.47;;;7.30;99.90;;;;;;5030545;28;20259;-85
2023/12/12 04:19:35;;;;;;;11.80;11.40;;;7.40;99.90;;;;;;5029764;28;20224;-86
2023/12/12 04:22:04;;;;;;;11.97;11.57;;;7.40;99.90;;;;;;5028404;28;20236;-85
2023/12/12 04:24:43;;;;;;;11.90;11.50;;;7.40;99.90;;;;;;5027669;28;20231;-84
2023/12/12 04:27:29;;;;;;;11.70;11.30;;;7.40;99.90;;;;;;5027960;28;20224;-86
2023/12/12 04:29:58;;;;;;;11.90;11.50;;;7.30;99.90;;;;;;5028169;28;20227;-85
2023/12/12 04:32:38;;;;;;;12.00;11.60;;;7.30;99.90;;;;;;5027817;28;20255;-86
2023/12/12 04:35:08;;;;;;;11.90;11.50;;;7.30;99.90;;;;;;5026857;28;20258;-86
2023/12/12 04:37:36;;;;;;;11.83;11.43;;;7.30;99.90;;;;;;5026955;28;20225;-85
2023/12/12 04:40:05;;;;;;;11.90;11.50;;;7.30;99.90;;;;;;5026309;28;20263;-85
2023/12/12 04:42:47;;;;;;;11.73;11.33;;;7.30;99.90;;;;;;5013852;28;20247;-85
2023/12/12 04:45:14;;;;;;;11.53;11.13;;;7.30;99.90;;;;;;5026104;28;20232;-85
2023/12/12 04:47:43;;;;;;;11.53;11.13;;;7.30;99.90;;;;;;5025708;28;20220;-85
2023/12/12 04:50:12;;;;;;;11.80;11.40;;;7.20;99.90;;;;;;5019422;28;20259;-86
2023/12/12 04:52:41;;;;;;;11.70;11.30;;;7.20;99.90;;;;;;5026477;28;20240;-85
2023/12/12 04:55:10;;;;;;;11.80;11.40;;;7.20;99.90;;;;;;5026838;28;20322;-86
2023/12/12 04:57:59;;;;;;;11.40;11.00;;;7.20;99.90;;;;;;5026919;28;20216;-86
2023/12/12 05:00:28;;;;;;;11.43;11.03;;;7.20;99.90;;;;;;5026807;28;20232;-85
2023/12/12 05:02:57;;;;;;;11.13;10.73;;;7.20;99.90;;;;;;5028335;28;20264;-86
2023/12/12 05:05:27;;;;;;;10.83;10.53;;;7.20;99.90;;;;;;5030961;28;20208;-85
2023/12/12 05:10:42;;;;;;;11.43;11.03;;;7.30;99.90;;;;;;5026489;28;20230;-86
2023/12/12 05:13:14;;;;;;;11.43;11.03;;;7.30;99.90;;;;;;5010465;28;20235;-86
2023/12/12 05:15:41;;;;;;;11.70;11.30;;;7.30;99.90;;;;;;5028641;28;20231;-87
2023/12/12 05:18:14;;;;;;;11.63;11.23;;;7.30;99.90;;;;;;5021068;28;20224;-87
2023/12/12 05:20:41;;;;;;;11.80;11.40;;;7.20;99.90;;;;;;5031426;28;20243;-85
2023/12/12 05:23:10;;;;;;;11.40;11.00;;;7.10;99.90;;;;;;5030142;28;20228;-86
2023/12/12 05:25:49;;;;;;;11.90;11.50;;;7.10;99.90;;;;;;5028862;28;20228;-86
2023/12/12 05:28:21;;;;;;;11.80;11.40;;;7.00;99.90;;;;;;5011649;28;20216;-86
2023/12/12 05:30:48;;;;;;;11.90;11.50;;;7.00;99.90;;;;;;5028169;28;20232;-86
2023/12/12 05:33:17;;;;;;;11.70;11.30;;;7.00;99.90;;;;;;5028173;28;20239;-86
2023/12/12 05:35:44;;;;;;;11.80;11.40;;;7.00;99.90;;;;;;5069554;22;20271;-83
2023/12/12 05:38:12;;;;;;;11.37;10.97;;;7.00;99.90;;;;;;5022537;28;20228;-83
2023/12/12 05:40:39;;;;;;;11.70;11.30;;;7.00;99.90;;;;;;5023181;28;20228;-83
2023/12/12 05:43:06;;;;;;;12.07;11.67;;;7.00;99.90;;;;;;5022897;28;20229;-84
2023/12/12 05:45:35;;;;;;;11.90;11.50;;;7.00;99.90;;;;;;5023281;28;20275;-83
2023/12/12 05:48:03;;;;;;;11.70;11.30;;;7.00;99.90;;;;;;5031363;28;20235;-83
2023/12/12 05:50:31;;;;;;;11.63;11.23;;;7.10;99.90;;;;;;5022636;28;20263;-83
2023/12/12 05:52:59;;;;;;;11.40;11.00;;;7.10;99.90;;;;;;5022281;28;20228;-83
2023/12/12 05:55:26;;;;;;;11.33;10.93;;;7.10;99.90;;;;;;5023043;28;20240;-83
2023/12/12 05:57:53;;;;;;;11.47;11.07;;;7.10;99.90;;;;;;5022292;28;20247;-83
2023/12/12 06:00:21;;;;;;;11.50;11.10;;;7.10;99.90;;;;;;5023317;28;20242;-83
2023/12/12 06:02:50;;;;;;;11.30;10.90;;;7.10;99.90;;;;;;5023778;28;20242;-82
2023/12/12 06:05:23;;;;;;;11.50;11.10;;;7.10;99.90;;;;;;5023761;28;20240;-83
2023/12/12 06:07:51;;;;;;;11.20;10.90;;;7.00;99.90;;;;;;5023513;28;20239;-83
2023/12/12 06:10:19;;;;;;;11.40;11.00;;;7.10;99.90;;;;;;5025777;28;20220;-83
2023/12/12 06:12:47;;;;;;;11.33;10.93;;;7.00;99.90;;;;;;5024701;28;20283;-83
2023/12/12 06:15:14;;;;;;;11.60;11.20;;;7.10;99.90;;;;;;5023552;28;20247;-83
2023/12/12 06:17:41;;;;;;;11.40;11.00;;;7.10;99.90;;;;;;5022945;28;20232;-83
2023/12/12 06:20:11;;;;;;;10.90;10.60;;;7.10;99.90;;;;;;5024258;28;20259;-83
2023/12/12 06:22:39;;;;;;;10.97;10.67;;;7.10;99.90;;;;;;5025375;28;20232;-83
2023/12/12 06:25:08;;;;;;;11.03;10.73;;;7.10;99.90;;;;;;5025390;28;20244;-84
2023/12/12 06:27:35;;;;;;;11.10;10.80;;;7.10;99.90;;;;;;5027506;28;20243;-84
2023/12/12 06:30:03;;;;;;;11.30;10.90;;;7.10;99.90;;;;;;5030057;28;20228;-83
2023/12/12 06:32:30;;;;;;;11.37;10.97;;;7.10;99.90;;;;;;5029328;28;20331;-81
2023/12/12 06:34:59;;;;;;;11.97;11.57;;;7.20;99.90;;;;;;5026755;28;20335;-82
2023/12/12 06:37:28;;;;;;;11.77;11.37;;;7.20;99.90;;;;;;5025284;28;20232;-81
2023/12/12 06:39:57;;;;;;;11.53;11.13;;;7.20;99.90;;;;;;5028407;28;20275;-81
2023/12/12 06:42:25;;;;;;;11.63;11.23;;;7.20;99.90;;;;;;5027703;28;20231;-82
2023/12/12 06:44:52;;;;;;;11.90;11.50;;;7.30;99.90;;;;;;5026859;28;20240;-82
2023/12/12 06:47:20;;;;;;;11.63;11.23;;;7.30;99.90;;;;;;5026601;28;20730;-82
2023/12/12 06:49:47;;;;;;;11.60;11.20;;;7.30;99.90;;;;;;5028027;28;20259;-82
2023/12/12 06:52:15;;;;;;;11.80;11.40;;;7.30;99.90;;;;;;5027162;28;20233;-83
2023/12/12 06:54:44;;;;;;;11.60;11.20;;;7.30;99.90;;;;;;5025989;28;20236;-82
2023/12/12 06:57:12;;;;;;;11.80;11.40;;;7.30;99.90;;;;;;5017700;28;20236;-82
2023/12/12 06:59:39;;;;;;;12.10;11.70;;;7.30;99.90;;;;;;5025995;28;20242;-82
2023/12/12 07:02:08;;;;;;;11.80;11.40;;;7.30;99.90;;;;;;5025109;28;20232;-82
2023/12/12 07:04:36;;;;;;;11.90;11.50;;;7.30;99.90;;;;;;5024996;28;20244;-82
2023/12/12 07:07:04;;;;;;;11.90;11.50;;;7.30;99.90;;;;;;5025840;28;20235;-82
2023/12/12 07:09:34;;;;;;;11.80;11.40;;;7.40;99.90;;;;;;5026050;28;20236;-82
2023/12/12 07:12:04;;;;;;;11.80;11.40;;;7.40;99.90;;;;;;5025633;28;20232;-82
2023/12/12 07:14:32;;;;;;;11.60;11.20;;;7.40;99.90;;;;;;5026392;28;20232;-84
2023/12/12 07:16:59;;;;;;;11.67;11.27;;;7.40;99.90;;;;;;5027953;28;20232;-82
2023/12/12 07:19:26;;;;;;;11.30;10.90;;;7.40;99.90;;;;;;5026763;28;20239;-82
2023/12/12 07:21:53;;;;;;;11.87;11.47;;;7.40;99.90;;;;;;5025994;28;20243;-82
2023/12/12 07:24:21;;;;;;;11.80;11.40;;;7.40;99.90;;;;;;5025280;28;20232;-81
2023/12/12 07:26:49;;;;;;;11.60;11.20;;;7.40;99.90;;;;;;5026250;28;20224;-82
2023/12/12 07:29:20;;;;;;;11.30;10.90;;;7.40;99.90;;;;;;5026412;28;20239;-82
2023/12/12 07:31:48;;;;;;;11.40;11.00;;;7.40;99.90;;;;;;5026317;28;20250;-82
2023/12/12 07:34:15;;;;;;;11.40;11.00;;;7.40;99.90;;;;;;5024360;28;20417;-84
2023/12/12 07:36:45;;;;;;;11.30;10.90;;;7.40;99.90;;;;;;5023464;28;20251;-82
2023/12/12 07:39:13;;;;;;;11.10;10.70;;;7.50;99.90;;;;;;5024311;28;20236;-82
2023/12/12 07:41:41;;;;;;;11.20;10.80;;;7.50;99.90;;;;;;5024820;28;20259;-83
2023/12/12 07:44:11;;;;;;;11.17;10.77;;;7.50;99.90;;;;;;5023569;28;20239;-83
2023/12/12 07:46:51;;;;;;;11.20;10.80;;;7.50;99.90;;;;;;5023959;28;20239;-82
2023/12/12 07:49:18;;;;;;;11.10;10.70;;;7.50;99.90;;;;;;5024682;28;20239;-83
2023/12/12 07:51:49;;;;;;;11.17;10.80;;;7.50;99.90;;;;;;5024127;28;20234;-83
2023/12/12 07:54:19;;;;;;;11.07;10.67;;;7.40;99.90;;;;;;5024666;28;20236;-82
2023/12/12 07:56:51;;;;;;;11.40;11.00;;;7.40;99.90;;;;;;5034398;28;20216;-81
2023/12/12 07:59:28;;;;;;;11.13;10.73;;;7.40;99.90;;;;;;5026588;28;20228;-82
2023/12/12 08:02:21;;;;;;;11.10;10.80;;;7.40;99.90;;;;;;5026301;28;20252;-81
2023/12/12 08:04:52;;;;;;;10.87;10.57;;;7.50;99.90;;;;;;5023803;28;20236;-82
2023/12/12 08:07:25;;;;;;;10.40;10.10;;;7.50;99.90;;;;;;5021952;28;20263;-82
2023/12/12 08:09:56;;;;;;;11.00;10.70;;;7.60;99.90;;;;;;5006141;28;20237;-82
2023/12/12 08:12:27;;;;;;;10.97;10.67;;;7.60;99.90;;;;;;5005286;28;20243;-83
2023/12/12 08:15:13;;;;;;;11.00;10.70;;;7.70;99.90;;;;;;5014624;28;20252;-84
2023/12/12 08:17:54;;;;;;;11.23;10.83;;;7.70;99.90;;;;;;5020806;28;20232;-84
2023/12/12 08:20:22;;;;;;;11.30;10.90;;;7.70;99.90;;;;;;5021797;28;20239;-82
2023/12/12 08:22:49;;;;;;;11.43;11.03;;;7.70;99.90;;;;;;5023227;28;20315;-81
2023/12/12 08:25:18;;;;;;;11.60;11.20;;;7.80;99.90;;;;;;5024473;28;20270;-83
2023/12/12 08:27:45;;;;;;;11.27;10.87;;;7.70;99.90;;;;;;5023601;28;20228;-83
2023/12/12 08:30:14;;;;;;;11.83;11.43;;;7.60;99.90;;;;;;5023332;28;20238;-82
2023/12/12 08:32:42;;;;;;;11.60;11.20;;;7.60;99.90;;;;;;5023820;28;20248;-82
2023/12/12 08:35:14;;;;;;;11.80;11.40;;;7.60;99.90;;;;;;5015288;28;20234;-82
2023/12/12 08:37:41;;;;;;;11.50;11.10;;;7.60;99.90;;;;;;5028326;28;20239;-81
2023/12/12 08:40:24;;;;;;;;;;;;;;;;;;;;;
2023/12/12 08:42:52;;;;;;;11.33;10.93;;;7.70;99.90;;;;;;5038890;28;20232;-84
2023/12/12 08:45:22;;;;;;;11.70;11.30;;;7.80;99.90;;;;;;5034253;28;20252;-81
2023/12/12 08:47:50;;;;;;;11.17;10.80;;;7.80;99.90;;;;;;5018447;28;20202;-81
2023/12/12 08:50:18;;;;;;;10.93;10.63;;;7.90;99.90;;;;;;5023248;28;20234;-82
2023/12/12 08:52:46;;;;;;;11.20;10.80;;;8.00;99.90;;;;;;5026904;28;20231;-83
2023/12/12 08:55:14;;;;;;;11.43;11.03;;;8.00;99.90;;;;;;5016910;28;20240;-82
2023/12/12 08:57:41;;;;;;;11.00;10.70;;;8.10;99.90;;;;;;5025492;28;20247;-82
2023/12/12 09:00:12;;;;;;;10.90;10.60;;;8.20;99.90;;;;;;5020784;28;20232;-83
2023/12/12 09:02:45;;;;;;;10.50;10.20;;;8.30;99.90;;;;;;5023941;28;20232;-83
2023/12/12 09:05:15;;;;;;;10.50;10.20;;;8.40;99.90;;;;;;5015250;28;20295;-85
2023/12/12 09:07:50;;;;;;;11.30;10.90;;;8.50;99.90;;;;;;5003453;28;20268;-83
2023/12/12 09:10:19;;;;;;;11.50;11.10;;;8.50;99.90;;;;;;5009542;28;20255;-83
2023/12/12 09:12:46;;;;;;;11.37;10.97;;;8.50;99.90;;;;;;5015512;28;20239;-82
2023/12/12 09:15:17;;;;;;;11.83;11.43;;;8.40;99.90;;;;;;5025374;28;20280;-81
2023/12/12 09:17:47;;;;;;;11.60;11.20;;;8.20;99.90;;;;;;5022804;28;20300;-80
2023/12/12 09:20:17;;;;;;;11.53;11.13;;;8.00;99.90;;;;;;5024275;28;20236;-83
2023/12/12 09:22:46;;;;;;;11.27;10.87;;;7.90;99.90;;;;;;5026509;28;20232;-82
2023/12/12 09:25:25;;;;;;;11.50;11.10;;;7.90;99.90;;;;;;5025146;28;20323;-82
2023/12/12 09:27:59;;;;;;;11.80;11.40;;;7.90;99.90;;;;;;5024451;28;20220;-82
2023/12/12 09:30:26;;;;;;;11.53;11.13;;;7.90;99.90;;;;;;5025192;28;20239;-82
2023/12/12 09:32:59;;;;;;;11.23;10.87;;;7.90;99.90;;;;;;5025599;28;20236;-83
2023/12/12 09:35:45;;;;;;;10.97;10.67;;;7.90;99.90;;;;;;5024032;28;20300;-84
2023/12/12 09:38:37;;;;;;;11.50;11.10;;;7.90;99.90;;;;;;5026120;28;20247;-82
2023/12/12 09:41:22;;;;;;;10.63;10.33;;;7.90;99.90;;;;;;5024637;28;20228;-82
2023/12/12 09:44:19;;;;;;;10.80;10.50;;;7.90;99.90;;;;;;5024595;28;20262;-82
2023/12/12 09:46:51;;;;;;;10.50;10.20;;;7.90;99.90;;;;;;5012361;28;20224;-81
2023/12/12 09:49:38;;;;;;;;;;;;;;;;;;;;;
2023/12/12 09:53:08;;;;;;;11.00;10.70;;;8.40;99.90;;;;;;5024953;28;20231;-81
2023/12/12 09:56:51;;;;;;;11.20;10.90;;;8.50;99.90;;;;;;5011918;28;20232;-82
2023/12/12 09:59:18;;;;;;;11.10;10.80;;;8.50;99.90;;;;;;5026972;28;20224;-83
2023/12/12 10:01:52;;;;;;;10.70;10.40;;;8.50;99.90;;;;;;5030667;28;20231;-83
2023/12/12 10:04:20;;;;;;;10.70;10.40;;;8.50;99.90;;;;;;5027674;28;20232;-83
2023/12/12 10:07:00;;;;;;;10.80;10.50;;;8.50;99.90;;;;;;5028737;28;20228;-84
2023/12/12 10:09:36;;;;;;;10.90;10.60;;;8.30;99.90;;;;;;5026362;28;20224;-82
2023/12/12 10:12:06;;;;;;;10.70;10.40;;;8.30;99.90;;;;;;5027546;28;20238;-82
2023/12/12 10:14:44;;;;;;;10.47;10.17;;;8.20;99.90;;;;;;5028072;28;20344;-82
2023/12/12 10:17:14;;;;;;;10.60;10.30;;;8.20;99.90;;;;;;5027381;28;20243;-82
2023/12/12 10:19:44;;;;;;;10.50;10.20;;;8.20;99.90;;;;;;5027614;28;20242;-81
2023/12/12 10:22:11;;;;;;;10.70;10.40;;;8.10;99.90;;;;;;5027204;28;20266;-82
2023/12/12 10:24:42;;;;;;;10.53;10.23;;;8.20;99.90;;;;;;5026769;28;20265;-82
2023/12/12 10:27:21;;;;;;;10.60;10.30;;;8.20;99.90;;;;;;5026523;28;20294;-82
2023/12/12 10:29:49;;;;;;;10.80;10.50;;;8.20;99.90;;;;;;5026406;28;20228;-82
2023/12/12 10:32:17;;;;;;;10.40;10.10;;;8.20;99.90;;;;;;5035248;28;20227;-83
2023/12/12 10:34:46;;;;;;;10.57;10.27;;;8.20;99.90;;;;;;5030587;28;20247;-84
2023/12/12 10:37:21;;;;;;;10.70;10.40;;;8.30;99.90;;;;;;5027887;28;20246;-82
2023/12/12 10:39:49;;;;;;;10.50;10.20;;;8.30;99.90;;;;;;5030302;28;20235;-84
2023/12/12 10:42:19;;;;;;;10.67;10.37;;;8.40;99.90;;;;;;5034907;28;20216;-83
2023/12/12 10:44:48;;;;;;;10.40;10.10;;;8.40;99.90;;;;;;5039988;28;20292;-81
2023/12/12 10:47:19;;;;;;;10.50;10.20;;;8.40;99.90;;;;;;5041524;28;20357;-82
2023/12/12 10:49:48;;;;;;;10.40;10.10;;;8.50;99.90;;;;;;5040376;28;20291;-82
2023/12/12 10:52:16;;;;;;;10.33;10.03;;;8.50;99.90;;;;;;5040010;28;20228;-82
2023/12/12 10:55:20;;;;;;;10.70;10.40;;;8.60;99.90;;;;;;5041200;28;20224;-81
2023/12/12 10:58:24;;;;;;;10.20;9.90;;;8.50;99.90;;;;;;5041882;28;20226;-83
2023/12/12 11:01:31;;;;;;;;;;;;;;;;;;;;;
2023/12/12 11:04:05;;;;;;;10.50;10.20;;;8.40;99.90;;;;;;5034065;28;20210;-82
2023/12/12 11:06:36;;;;;;;10.60;10.30;;;8.30;99.90;;;;;;5039618;28;20226;-81
2023/12/12 11:09:46;;;;;;;10.60;10.30;;;8.30;99.90;;;;;;5041417;28;20239;-82
2023/12/12 11:12:19;;;;;;;10.53;10.23;;;8.30;99.90;;;;;;5040386;28;20216;-79
2023/12/12 11:14:49;;;;;;;10.73;10.43;;;8.30;99.90;;;;;;5041523;28;20234;-81
2023/12/12 11:17:16;;;;;;;10.80;10.50;;;8.40;99.90;;;;;;5041458;28;20227;-85
2023/12/12 11:19:44;;;;;;;10.60;10.30;;;8.40;99.90;;;;;;5041535;28;20232;-81
2023/12/12 11:22:42;;;;;;;10.40;10.10;;;8.50;99.90;;;;;;5041853;28;20207;-83
2023/12/12 11:31:27;;;;;;;10.40;10.10;;;8.30;99.90;;;;;;5021334;28;20235;-83
2023/12/12 11:34:12;;;;;;;10.57;10.27;;;8.30;99.90;;;;;;5024043;28;20243;-82
2023/12/12 11:36:51;;;;;;;10.70;10.40;;;8.40;99.90;;;;;;5090262;22;20283;-86
2023/12/12 11:39:49;;;;;;;11.00;10.70;;;8.40;99.90;;;;;;5045998;28;20243;-87
2023/12/12 11:45:03;;;;;;;10.70;10.40;;;8.30;99.90;;;;;;5043065;28;20231;-87
2023/12/12 11:47:43;;;;;;;11.00;10.70;;;8.40;99.90;;;;;;5045058;28;20238;-88
2023/12/12 11:50:46;;;;;;;10.73;10.43;;;8.40;99.90;;;;;;5053150;28;20245;-86
2023/12/12 11:53:52;;;;;;;10.80;10.50;;;8.30;99.90;;;;;;5045239;28;20227;-87
2023/12/12 11:56:21;;;;;;;11.23;10.83;;;8.30;99.90;;;;;;5045141;28;20258;-87
2023/12/12 12:04:19;;;;;;;10.60;10.30;;;8.30;99.90;;;;;;5045133;28;20230;-85
2023/12/12 12:06:55;;;;;;;10.90;10.60;;;8.40;99.90;;;;;;5046278;28;20239;-88
2023/12/12 12:09:26;;;;;;;11.30;10.90;;;8.30;99.90;;;;;;5045435;28;20223;-86
2023/12/12 12:11:53;;;;;;;11.07;10.67;;;8.40;99.90;;;;;;5056150;28;20234;-85
2023/12/12 12:14:23;;;;;;;11.13;10.73;;;8.40;99.90;;;;;;5047724;28;20243;-85
2023/12/12 12:16:56;;;;;;;11.30;10.90;;;8.40;99.90;;;;;;5048269;28;20224;-87
2023/12/12 12:19:42;;;;;;;11.40;11.00;;;8.40;99.90;;;;;;5047349;28;20318;-85
2023/12/12 12:22:18;;;;;;;11.00;10.63;;;8.40;99.90;;;;;;5046042;28;20235;-87
2023/12/12 12:24:47;;;;;;;10.90;10.60;;;8.40;99.90;;;;;;5046081;28;20262;-86
2023/12/12 12:27:17;;;;;;;10.80;10.50;;;8.40;99.90;;;;;;5040256;28;20242;-87
2023/12/12 12:30:05;;;;;;;11.00;10.60;;;8.40;99.90;;;;;;5045821;28;20226;-88
2023/12/12 12:32:33;;;;;;;10.70;10.40;;;8.40;99.90;;;;;;5045958;28;20231;-85
2023/12/12 12:35:20;;;;;;;10.77;10.47;;;8.40;99.90;;;;;;5052904;28;20235;-86
2023/12/12 12:37:53;;;;;;;10.53;10.23;;;8.50;99.90;;;;;;5049126;28;20294;-86
2023/12/12 12:40:38;;;;;;;10.80;10.50;;;8.60;99.90;;;;;;5047594;28;20223;-86
2023/12/12 12:43:17;;;;;;;10.63;10.33;;;8.60;99.90;;;;;;5044961;28;20322;-85
2023/12/12 12:45:45;;;;;;;10.50;10.20;;;8.60;99.90;;;;;;5045076;28;21063;-87
2023/12/12 12:48:14;;;;;;;10.50;10.20;;;8.60;99.90;;;;;;5045022;28;20267;-85
2023/12/12 12:50:55;;;;;;;10.40;10.10;;;8.60;99.90;;;;;;5049066;28;21114;-88
2023/12/12 12:53:23;;;;;;;10.70;10.40;;;8.60;99.90;;;;;;5043662;28;20258;-88
2023/12/12 12:55:51;;;;;;;10.50;10.20;;;8.60;99.90;;;;;;5044529;28;20235;-86
2023/12/12 12:58:22;;;;;;;10.60;10.30;;;8.60;99.90;;;;;;5044076;28;20239;-86
2023/12/12 13:00:49;;;;;;;10.30;10.00;;;8.60;99.90;;;;;;5043697;28;20239;-86
2023/12/12 13:03:21;;;;;;;10.30;10.00;;;8.60;99.90;;;;;;5044482;28;20279;-86
2023/12/12 13:08:37;;;;;;;10.40;10.10;;;8.60;99.90;;;;;;5044146;28;20231;-85
2023/12/12 13:11:05;;;;;;;10.20;9.90;;;8.60;99.90;;;;;;5045530;28;20223;-84
2023/12/12 13:13:36;;;;;;;10.03;9.73;;;8.60;99.90;;;;;;5045499;28;20242;-84
2023/12/12 13:16:07;;;;;;;10.10;9.80;;;8.60;99.90;;;;;;5045353;28;20243;-86
2023/12/12 13:18:34;;;;;;;10.07;9.77;;;8.60;99.90;;;;;;5042037;28;20240;-85
2023/12/12 13:23:52;;;;;;;10.10;9.80;;;8.60;99.90;;;;;;5046110;28;20294;-85
2023/12/12 13:26:19;;;;;;;10.17;9.87;;;8.60;99.90;;;;;;5046744;28;20299;-85
2023/12/12 13:28:51;;;;;;;10.40;10.10;;;8.60;99.90;;;;;;5056009;28;20219;-86
2023/12/12 13:31:20;;;;;;;10.43;10.13;;;8.70;99.90;;;;;;5047920;28;20313;-86
2023/12/12 13:33:49;;;;;;;10.43;10.13;;;8.70;99.90;;;;;;5045922;28;20227;-87
2023/12/12 13:39:07;;;;;;;10.90;10.60;;;8.70;99.90;;;;;;5044521;28;20286;-85
2023/12/12 13:41:35;;;;;;;10.60;10.30;;;8.70;99.90;;;;;;5044081;28;20282;-86
2023/12/12 13:44:04;;;;;;;10.67;10.37;;;8.80;99.90;;;;;;5044085;28;20231;-89
2023/12/12 13:46:32;;;;;;;10.67;10.37;;;8.80;99.90;;;;;;5046007;28;20239;-86
2023/12/12 13:49:02;;;;;;;10.83;10.53;;;8.80;99.90;;;;;;5047780;28;20231;-86
2023/12/12 13:54:18;;;;;;;11.37;10.97;;;8.80;99.90;;;;;;5023658;28;21057;-87
2023/12/12 13:56:49;;;;;;;11.60;11.20;;;8.80;99.90;;;;;;5025382;28;20302;-85
2023/12/12 13:59:18;;;;;;;11.20;10.80;;;8.80;99.90;;;;;;5028403;28;20247;-86
2023/12/12 14:04:26;;;;;;;10.90;10.60;;;8.70;99.90;;;;;;5026383;28;20232;-85
2023/12/12 14:09:43;;;;;;;11.00;10.70;;;8.70;99.90;;;;;;5047392;28;20223;-86
2023/12/12 14:12:12;;;;;;;11.00;10.63;;;8.80;99.90;;;;;;5046270;28;20223;-86
2023/12/12 14:14:42;;;;;;;11.20;10.80;;;8.80;99.90;;;;;;5047678;28;20278;-86
2023/12/12 14:17:12;;;;;;;11.20;10.80;;;8.70;99.90;;;;;;5051469;28;20244;-84
2023/12/12 14:19:41;;;;;;;11.23;10.83;;;8.70;99.90;;;;;;5054148;28;20239;-85